Time;durP1;ratioP1;P1;durP2;ratioP2;P2;SDS_P1;SDS_P2;PMS_P1;PMS_P2;Temp;Humidity;BMP_temperature;BMP_pressure;BME280_temperature;BME280_humidity;BME280_pressure;Samples;Min_cycle;Max_cycle;Signal;HPM_P1;HPM_P2
2022/09/16 00:01:36;;;;;;;0.38;0.20;;;;;19.20;100897.00;;;;5011033;28;20228;-76
2022/09/16 00:04:05;;;;;;;2.42;0.40;;;;;19.20;100903.00;;;;5009455;28;20200;-77
2022/09/16 00:06:32;;;;;;;1.42;0.20;;;;;19.20;100904.00;;;;5010978;28;20212;-77
2022/09/16 00:09:01;;;;;;;0.60;0.30;;;;;19.20;100904.00;;;;5011585;28;20204;-77
2022/09/16 00:11:29;;;;;;;1.63;0.22;;;;;19.20;100902.00;;;;5010545;28;20197;-77
2022/09/16 00:13:56;;;;;;;1.08;0.50;;;;;19.20;100907.00;;;;5009810;28;20197;-77
2022/09/16 00:16:26;;;;;;;3.28;0.47;;;;;19.20;100909.00;;;;5010538;28;20197;-77
2022/09/16 00:18:55;;;;;;;4.72;0.35;;;;;19.20;100908.00;;;;5007559;28;20225;-78
2022/09/16 00:21:24;;;;;;;2.05;0.25;;;;;19.20;100916.00;;;;5004854;28;20205;-78
2022/09/16 00:23:52;;;;;;;2.63;0.30;;;;;19.20;100914.00;;;;5011585;28;20208;-77
2022/09/16 00:26:19;;;;;;;1.60;0.63;;;;;19.20;100916.00;;;;5011906;28;20671;-77
2022/09/16 00:28:49;;;;;;;1.30;0.30;;;;;19.20;100916.00;;;;5008753;28;20291;-78
2022/09/16 00:31:17;;;;;;;1.35;0.40;;;;;19.20;100910.00;;;;5000052;28;20225;-77
2022/09/16 00:33:44;;;;;;;2.13;0.28;;;;;19.20;100904.00;;;;5011292;28;21316;-78
2022/09/16 00:36:13;;;;;;;1.70;0.32;;;;;19.20;100905.00;;;;5011736;28;20203;-77
2022/09/16 00:38:42;;;;;;;0.60;0.30;;;;;19.20;100912.00;;;;5009013;28;20700;-77
2022/09/16 00:41:16;;;;;;;0.60;0.30;;;;;19.20;100918.00;;;;5007684;28;20197;-77
2022/09/16 00:43:50;;;;;;;2.25;0.30;;;;;19.10;100908.00;;;;5002804;28;20201;-77
2022/09/16 00:46:22;;;;;;;0.52;0.30;;;;;19.20;100921.00;;;;5011890;28;20193;-77
2022/09/16 00:48:50;;;;;;;1.13;0.38;;;;;19.20;100918.00;;;;5008589;28;20212;-77
2022/09/16 00:51:19;;;;;;;2.42;0.50;;;;;19.20;100916.00;;;;5011412;28;20205;-77
2022/09/16 00:53:55;;;;;;;0.98;0.30;;;;;19.20;100919.00;;;;5011132;28;20217;-77
2022/09/16 00:56:24;;;;;;;1.90;0.30;;;;;19.20;100916.00;;;;5010087;28;20274;-77
2022/09/16 00:59:00;;;;;;;1.77;0.60;;;;;19.20;100903.00;;;;5009968;28;20236;-77
2022/09/16 01:01:28;;;;;;;1.52;0.40;;;;;19.20;100900.00;;;;5011570;28;20654;-77
2022/09/16 01:03:59;;;;;;;2.50;0.50;;;;;19.20;100893.00;;;;5013066;28;20770;-78
2022/09/16 01:06:28;;;;;;;3.55;0.80;;;;;19.20;100892.00;;;;5014048;28;20229;-77
2022/09/16 01:08:58;;;;;;;0.80;0.30;;;;;19.20;100889.00;;;;5012301;28;20209;-77
2022/09/16 01:11:25;;;;;;;1.35;0.38;;;;;19.20;100895.00;;;;5005200;28;20213;-77
2022/09/16 01:13:53;;;;;;;2.97;0.75;;;;;19.20;100893.00;;;;5006125;28;20208;-77
2022/09/16 01:16:27;;;;;;;2.10;0.30;;;;;19.20;100899.00;;;;5015330;28;20204;-77
2022/09/16 01:19:03;;;;;;;2.22;0.63;;;;;19.20;100896.00;;;;5010816;28;20252;-77
2022/09/16 01:21:42;;;;;;;2.35;0.50;;;;;19.20;100889.00;;;;5009772;28;20205;-77
2022/09/16 01:24:35;;;;;;;3.35;0.93;;;;;19.10;100896.00;;;;5008987;28;20203;-77
2022/09/16 01:27:48;;;;;;;2.25;0.40;;;;;19.10;100899.00;;;;5008962;28;20201;-77
2022/09/16 01:30:46;;;;;;;1.80;0.30;;;;;19.20;100906.00;;;;4903839;29;20203;-77
2022/09/16 01:33:24;;;;;;;4.82;0.73;;;;;19.20;100916.00;;;;4910125;29;20200;-77
2022/09/16 01:36:20;;;;;;;0.93;0.25;;;;;19.10;100921.00;;;;4981595;28;20205;-76
2022/09/16 01:39:00;;;;;;;2.45;0.60;;;;;19.10;100913.00;;;;5008245;28;20228;-78
2022/09/16 01:41:33;;;;;;;2.03;0.38;;;;;19.20;100914.00;;;;5010234;28;20659;-77
2022/09/16 01:44:06;;;;;;;0.85;0.40;;;;;19.20;100911.00;;;;5010422;28;22207;-77
2022/09/16 01:46:41;;;;;;;1.08;0.40;;;;;19.10;100906.00;;;;5003203;28;20205;-77
2022/09/16 01:49:18;;;;;;;2.25;0.63;;;;;19.10;100900.00;;;;5008508;28;20196;-77
2022/09/16 01:51:53;;;;;;;2.90;0.40;;;;;19.20;100901.00;;;;5009416;28;20201;-77
2022/09/16 01:54:27;;;;;;;1.02;0.30;;;;;19.10;100899.00;;;;5009542;28;20678;-77
2022/09/16 01:57:01;;;;;;;1.73;0.60;;;;;19.20;100894.00;;;;5009664;28;20220;-77
2022/09/16 01:59:36;;;;;;;0.75;0.32;;;;;19.10;100899.00;;;;5005795;28;20216;-77
2022/09/16 02:02:10;;;;;;;2.35;0.40;;;;;19.10;100898.00;;;;5005208;28;20204;-77
2022/09/16 02:04:43;;;;;;;1.77;0.25;;;;;19.10;100896.00;;;;5010572;28;20193;-77
2022/09/16 02:07:13;;;;;;;0.95;0.28;;;;;19.10;100903.00;;;;5008234;28;20288;-77
2022/09/16 02:09:44;;;;;;;1.23;0.43;;;;;19.10;100898.00;;;;5009462;28;20201;-77
2022/09/16 02:12:17;;;;;;;0.95;0.30;;;;;19.10;100895.00;;;;5009334;28;20197;-77
2022/09/16 02:14:48;;;;;;;2.80;0.35;;;;;19.10;100900.00;;;;5006582;28;20209;-77
2022/09/16 02:17:19;;;;;;;1.15;0.20;;;;;19.10;100906.00;;;;5004440;28;20200;-77
2022/09/16 02:19:56;;;;;;;2.10;0.35;;;;;19.00;100905.00;;;;4998915;28;20252;-77
2022/09/16 02:22:29;;;;;;;2.58;0.13;;;;;19.00;100903.00;;;;5003976;28;20232;-77
2022/09/16 02:25:00;;;;;;;2.17;0.77;;;;;19.00;100894.00;;;;5007109;28;20203;-77
2022/09/16 02:27:31;;;;;;;1.67;0.50;;;;;19.00;100905.00;;;;4994953;28;20208;-77
2022/09/16 02:30:04;;;;;;;0.63;0.10;;;;;19.00;100903.00;;;;5009227;28;20188;-77
2022/09/16 02:32:34;;;;;;;1.48;0.30;;;;;19.00;100909.00;;;;5008639;28;20255;-77
2022/09/16 02:35:05;;;;;;;2.60;0.30;;;;;19.00;100905.00;;;;5007883;28;20205;-77
2022/09/16 02:37:36;;;;;;;1.00;0.40;;;;;19.00;100899.00;;;;5003651;28;20248;-77
2022/09/16 02:40:12;;;;;;;0.45;0.25;;;;;19.00;100897.00;;;;4994169;28;20232;-77
2022/09/16 02:42:39;;;;;;;1.13;0.30;;;;;19.00;100898.00;;;;5007904;28;20201;-78
2022/09/16 02:45:08;;;;;;;1.27;0.30;;;;;19.00;100892.00;;;;5008169;28;20573;-77
2022/09/16 02:47:46;;;;;;;2.17;0.35;;;;;18.90;100893.00;;;;5007482;28;20216;-77
2022/09/16 02:50:20;;;;;;;1.23;0.40;;;;;19.00;100898.00;;;;5007279;28;20196;-78
2022/09/16 02:52:56;;;;;;;2.20;0.43;;;;;19.00;100898.00;;;;5006637;28;20205;-78
2022/09/16 02:55:34;;;;;;;0.70;0.30;;;;;19.00;100902.00;;;;5007817;28;21007;-78
2022/09/16 02:58:01;;;;;;;2.28;0.45;;;;;19.00;100906.00;;;;5006975;28;20224;-77
2022/09/16 03:00:30;;;;;;;1.65;0.50;;;;;19.00;100913.00;;;;5006229;28;20229;-77
2022/09/16 03:02:58;;;;;;;0.93;0.30;;;;;19.00;100915.00;;;;5007239;28;20659;-77
2022/09/16 03:05:29;;;;;;;1.80;0.45;;;;;19.00;100906.00;;;;5007633;28;20208;-78
2022/09/16 03:07:57;;;;;;;0.95;0.45;;;;;19.00;100906.00;;;;5006879;28;20208;-77
2022/09/16 03:10:28;;;;;;;0.98;0.38;;;;;19.00;100901.00;;;;5008151;28;20572;-78
2022/09/16 03:13:03;;;;;;;3.75;0.90;;;;;18.90;100894.00;;;;5007010;28;20671;-78
2022/09/16 03:15:45;;;;;;;0.80;0.40;;;;;18.90;100886.00;;;;5008422;28;20204;-77
2022/09/16 03:18:57;;;;;;;1.27;0.60;;;;;18.80;100882.00;;;;5007518;28;20193;-78
2022/09/16 03:21:33;;;;;;;1.33;0.77;;;;;18.90;100880.00;;;;4940886;29;20347;-77
2022/09/16 03:24:09;;;;;;;2.70;0.40;;;;;18.90;100891.00;;;;5003773;28;20202;-77
2022/09/16 03:26:46;;;;;;;4.18;0.50;;;;;18.90;100890.00;;;;5009731;28;20236;-77
2022/09/16 03:29:19;;;;;;;1.48;0.50;;;;;18.90;100895.00;;;;5007681;28;20196;-77
2022/09/16 03:31:54;;;;;;;1.45;0.50;;;;;18.90;100897.00;;;;5006185;28;20250;-78
2022/09/16 03:34:27;;;;;;;1.15;0.93;;;;;18.90;100906.00;;;;5013272;28;20189;-77
2022/09/16 03:37:01;;;;;;;0.98;0.60;;;;;18.90;100905.00;;;;5007169;28;20199;-77
2022/09/16 03:39:29;;;;;;;2.13;0.55;;;;;18.90;100904.00;;;;5006045;28;20224;-77
2022/09/16 03:42:01;;;;;;;1.35;0.40;;;;;18.90;100910.00;;;;5011045;28;20201;-77
2022/09/16 03:44:33;;;;;;;1.52;0.60;;;;;18.90;100917.00;;;;5016343;28;20189;-77
2022/09/16 03:47:01;;;;;;;3.15;0.60;;;;;18.90;100925.00;;;;5005468;28;20666;-77
2022/09/16 03:49:29;;;;;;;1.23;0.52;;;;;18.90;100928.00;;;;5008253;28;20201;-77
2022/09/16 03:51:58;;;;;;;1.95;0.93;;;;;18.90;100925.00;;;;5006069;28;20270;-77
2022/09/16 03:54:25;;;;;;;3.13;0.60;;;;;18.90;100921.00;;;;5008487;28;20209;-77
2022/09/16 03:56:52;;;;;;;1.58;0.60;;;;;18.90;100920.00;;;;5005479;28;20243;-78
2022/09/16 03:59:20;;;;;;;2.63;0.55;;;;;18.90;100901.00;;;;5008209;28;20232;-78
2022/09/16 04:01:48;;;;;;;1.85;0.47;;;;;18.90;100890.00;;;;5006196;28;20617;-78
2022/09/16 04:04:15;;;;;;;1.30;0.55;;;;;18.90;100891.00;;;;5007794;28;20273;-78
2022/09/16 04:06:42;;;;;;;0.70;0.20;;;;;18.90;100888.00;;;;5005562;28;20213;-78
2022/09/16 04:09:12;;;;;;;0.65;0.40;;;;;18.80;100873.00;;;;5007863;28;20200;-78
2022/09/16 04:11:40;;;;;;;2.42;0.57;;;;;18.80;100878.00;;;;5005755;28;20213;-78
2022/09/16 04:14:08;;;;;;;1.13;0.50;;;;;18.80;100876.00;;;;5006671;28;20201;-78
2022/09/16 04:16:35;;;;;;;3.30;0.20;;;;;18.80;100883.00;;;;5007427;28;20205;-77
2022/09/16 04:19:02;;;;;;;2.13;0.43;;;;;18.80;100883.00;;;;5005320;28;20232;-78
2022/09/16 04:21:30;;;;;;;1.20;0.30;;;;;18.80;100874.00;;;;5005624;28;20209;-76
2022/09/16 04:23:57;;;;;;;2.05;0.30;;;;;18.80;100882.00;;;;5009043;28;20201;-76
2022/09/16 04:26:26;;;;;;;0.80;0.32;;;;;18.80;100874.00;;;;5005209;28;20201;-76
2022/09/16 04:28:54;;;;;;;1.65;0.25;;;;;18.80;100874.00;;;;5018440;28;20208;-78
2022/09/16 04:31:21;;;;;;;0.60;0.30;;;;;18.80;100872.00;;;;5008030;28;20221;-78
2022/09/16 04:33:49;;;;;;;2.10;0.50;;;;;18.80;100878.00;;;;5006293;28;20283;-79
2022/09/16 04:36:19;;;;;;;0.43;0.28;;;;;18.80;100876.00;;;;5004329;28;20728;-76
2022/09/16 04:38:48;;;;;;;1.83;0.40;;;;;18.70;100879.00;;;;5004578;28;20201;-76
2022/09/16 04:41:19;;;;;;;1.15;0.40;;;;;18.70;100876.00;;;;5008320;28;20205;-76
2022/09/16 04:43:52;;;;;;;1.17;0.35;;;;;18.70;100879.00;;;;5008701;28;20700;-76
2022/09/16 04:46:20;;;;;;;2.05;0.60;;;;;18.70;100882.00;;;;5011709;28;20201;-75
2022/09/16 04:48:48;;;;;;;0.93;0.28;;;;;18.70;100882.00;;;;5011581;28;20197;-77
2022/09/16 04:51:15;;;;;;;1.77;0.60;;;;;18.70;100873.00;;;;5011025;28;20208;-77
2022/09/16 04:53:43;;;;;;;0.22;0.20;;;;;18.70;100873.00;;;;5004306;28;20216;-77
2022/09/16 04:56:14;;;;;;;0.82;0.40;;;;;18.70;100869.00;;;;5008166;28;20205;-77
2022/09/16 04:58:44;;;;;;;2.00;0.50;;;;;18.70;100872.00;;;;5010286;28;20769;-76
2022/09/16 05:01:15;;;;;;;2.22;0.30;;;;;18.60;100878.00;;;;5002794;28;20221;-77
2022/09/16 05:03:43;;;;;;;1.35;0.50;;;;;18.60;100879.00;;;;5022292;28;20555;-77
2022/09/16 05:06:12;;;;;;;1.67;0.50;;;;;18.60;100877.00;;;;5012944;28;20196;-77
2022/09/16 05:08:40;;;;;;;1.50;0.40;;;;;18.60;100878.00;;;;5016016;28;20209;-77
2022/09/16 05:11:09;;;;;;;1.10;0.30;;;;;18.60;100876.00;;;;5007660;28;20209;-77
2022/09/16 05:13:36;;;;;;;0.85;0.30;;;;;18.60;100874.00;;;;5008838;28;20568;-77
2022/09/16 05:16:06;;;;;;;3.50;0.50;;;;;18.50;100873.00;;;;5008260;28;20202;-77
2022/09/16 05:18:36;;;;;;;1.20;0.50;;;;;18.50;100867.00;;;;5007708;28;20195;-77
2022/09/16 05:21:06;;;;;;;1.65;0.38;;;;;18.50;100871.00;;;;5007613;28;20256;-77
2022/09/16 05:23:33;;;;;;;0.65;0.22;;;;;18.50;100865.00;;;;5010223;28;20201;-77
2022/09/16 05:26:04;;;;;;;1.25;0.70;;;;;18.50;100865.00;;;;5012021;28;20203;-77
2022/09/16 05:28:33;;;;;;;0.43;0.17;;;;;18.50;100863.00;;;;5009150;28;20197;-77
2022/09/16 05:31:11;;;;;;;1.00;0.40;;;;;18.40;100875.00;;;;5009537;28;20206;-78
2022/09/16 05:33:40;;;;;;;0.50;0.25;;;;;18.40;100877.00;;;;5008809;28;20208;-77
2022/09/16 05:36:09;;;;;;;0.30;0.25;;;;;18.50;100876.00;;;;5003661;28;20205;-77
2022/09/16 05:38:37;;;;;;;0.52;0.32;;;;;18.50;100880.00;;;;5009342;28;20234;-77
2022/09/16 05:41:05;;;;;;;0.93;0.40;;;;;18.40;100890.00;;;;5007612;28;20221;-77
2022/09/16 05:43:33;;;;;;;1.58;0.40;;;;;18.40;100906.00;;;;5006864;28;20205;-76
2022/09/16 05:46:02;;;;;;;1.23;0.32;;;;;18.50;100907.00;;;;5008830;28;20211;-77
2022/09/16 05:48:29;;;;;;;0.50;0.30;;;;;18.50;100916.00;;;;5009706;28;20292;-78
2022/09/16 05:51:00;;;;;;;1.70;0.40;;;;;18.40;100917.00;;;;5007537;28;20255;-78
2022/09/16 05:53:30;;;;;;;4.57;0.70;;;;;18.40;100904.00;;;;5010404;28;20197;-79
2022/09/16 05:55:58;;;;;;;1.85;0.50;;;;;18.40;100902.00;;;;5007220;28;20196;-79
2022/09/16 05:58:27;;;;;;;2.38;0.40;;;;;18.40;100909.00;;;;5006433;28;20644;-78
2022/09/16 06:00:59;;;;;;;1.45;0.22;;;;;18.30;100912.00;;;;5004090;28;20224;-79
2022/09/16 06:03:27;;;;;;;1.40;0.28;;;;;18.40;100908.00;;;;4993293;28;20589;-77
2022/09/16 06:06:01;;;;;;;0.70;0.35;;;;;18.30;100909.00;;;;5009862;28;20201;-77
2022/09/16 06:08:29;;;;;;;1.10;0.40;;;;;18.40;100908.00;;;;5018364;28;20192;-77
2022/09/16 06:11:00;;;;;;;0.50;0.30;;;;;18.40;100904.00;;;;5007928;28;20651;-77
2022/09/16 06:13:27;;;;;;;0.98;0.20;;;;;18.40;100910.00;;;;5009101;28;20196;-77
2022/09/16 06:15:55;;;;;;;1.40;0.30;;;;;18.40;100902.00;;;;5008868;28;20200;-77
2022/09/16 06:18:23;;;;;;;2.03;0.60;;;;;18.40;100907.00;;;;5002919;28;20768;-77
2022/09/16 06:20:51;;;;;;;1.52;0.40;;;;;18.40;100909.00;;;;4999935;28;20228;-77
2022/09/16 06:23:19;;;;;;;2.17;0.60;;;;;18.40;100906.00;;;;5007410;28;20212;-76
2022/09/16 06:25:47;;;;;;;2.38;0.40;;;;;18.50;100908.00;;;;5009285;28;20201;-77
2022/09/16 06:28:15;;;;;;;1.13;0.40;;;;;18.50;100917.00;;;;5008972;28;20200;-77
2022/09/16 06:30:42;;;;;;;0.80;0.52;;;;;18.60;100916.00;;;;5007548;28;20209;-77
2022/09/16 06:33:11;;;;;;;8.25;0.50;;;;;18.60;100917.00;;;;5008550;28;20239;-77
2022/09/16 06:35:38;;;;;;;4.28;0.43;;;;;18.60;100915.00;;;;5008865;28;20203;-77
2022/09/16 06:38:06;;;;;;;0.50;0.13;;;;;18.70;100914.00;;;;5008499;28;20208;-76
2022/09/16 06:40:34;;;;;;;1.02;0.25;;;;;18.70;100918.00;;;;5008357;28;20217;-77
2022/09/16 06:43:02;;;;;;;1.52;0.30;;;;;18.80;100920.00;;;;5007889;28;20201;-77
2022/09/16 06:45:29;;;;;;;1.15;0.30;;;;;18.80;100921.00;;;;5008559;28;20205;-78
2022/09/16 06:48:00;;;;;;;3.78;0.65;;;;;18.80;100922.00;;;;5008313;28;20278;-77
2022/09/16 06:50:28;;;;;;;1.25;0.30;;;;;18.90;100929.00;;;;5008652;28;20233;-77
2022/09/16 06:52:55;;;;;;;1.92;0.47;;;;;18.90;100926.00;;;;5004064;28;20197;-78
2022/09/16 06:55:22;;;;;;;2.85;0.50;;;;;18.90;100922.00;;;;5010501;28;20197;-77
2022/09/16 06:57:51;;;;;;;1.00;0.40;;;;;19.00;100915.00;;;;5008221;28;20243;-78
2022/09/16 07:00:18;;;;;;;1.25;0.50;;;;;19.10;100918.00;;;;5008999;28;20800;-78
2022/09/16 07:02:46;;;;;;;1.30;0.30;;;;;19.20;100919.00;;;;5008824;28;20850;-78
2022/09/16 07:05:13;;;;;;;4.13;0.40;;;;;19.20;100912.00;;;;5006789;28;20197;-78
2022/09/16 07:07:41;;;;;;;1.33;0.30;;;;;19.30;100912.00;;;;5008622;28;20196;-77
2022/09/16 07:10:09;;;;;;;1.52;0.60;;;;;19.40;100915.00;;;;5006502;28;20217;-78
2022/09/16 07:12:36;;;;;;;1.45;0.50;;;;;19.40;100914.00;;;;5014225;28;20198;-78
2022/09/16 07:15:06;;;;;;;1.10;0.30;;;;;19.40;100920.00;;;;5006301;28;20208;-77
2022/09/16 07:17:33;;;;;;;1.65;0.40;;;;;19.40;100916.00;;;;5007408;28;21094;-78
2022/09/16 07:20:00;;;;;;;0.50;0.25;;;;;19.40;100920.00;;;;4997368;28;20221;-78
2022/09/16 07:22:31;;;;;;;1.48;0.60;;;;;19.40;100928.00;;;;4989802;28;20198;-78
2022/09/16 07:24:58;;;;;;;2.63;0.43;;;;;19.50;100922.00;;;;5006734;28;20243;-77
2022/09/16 07:27:25;;;;;;;1.98;0.43;;;;;19.60;100917.00;;;;5008977;28;20204;-78
2022/09/16 07:29:55;;;;;;;2.90;0.57;;;;;19.60;100919.00;;;;5008355;28;20197;-78
2022/09/16 07:32:24;;;;;;;0.60;0.40;;;;;19.70;100918.00;;;;5009419;28;20233;-78
2022/09/16 07:34:52;;;;;;;0.95;0.40;;;;;19.80;100918.00;;;;5007461;28;20702;-77
2022/09/16 07:37:20;;;;;;;3.55;0.73;;;;;19.80;100917.00;;;;5009538;28;20255;-78
2022/09/16 07:39:49;;;;;;;2.38;0.40;;;;;19.90;100924.00;;;;5008447;28;20196;-78
2022/09/16 07:42:16;;;;;;;1.25;0.40;;;;;19.90;100920.00;;;;5005064;28;20210;-78
2022/09/16 07:44:43;;;;;;;3.88;0.40;;;;;20.00;100922.00;;;;4995109;28;20205;-78
2022/09/16 07:47:11;;;;;;;1.60;0.55;;;;;20.00;100921.00;;;;5007446;28;20220;-78
2022/09/16 07:49:39;;;;;;;1.13;0.50;;;;;20.10;100927.00;;;;5008392;28;20197;-78
2022/09/16 07:52:07;;;;;;;2.60;0.75;;;;;20.10;100932.00;;;;5007324;28;20931;-78
2022/09/16 07:54:34;;;;;;;1.27;0.43;;;;;20.20;100929.00;;;;5008261;28;20209;-78
2022/09/16 07:57:01;;;;;;;2.05;0.40;;;;;20.20;100930.00;;;;5006121;28;20216;-78
2022/09/16 07:59:29;;;;;;;1.25;0.35;;;;;20.30;100937.00;;;;5007622;28;20193;-78
2022/09/16 08:01:56;;;;;;;0.65;0.32;;;;;20.40;100944.00;;;;5006377;28;20227;-78
2022/09/16 08:04:23;;;;;;;4.47;0.60;;;;;20.40;100945.00;;;;5007360;28;20205;-78
2022/09/16 08:06:52;;;;;;;1.05;0.30;;;;;20.50;100954.00;;;;5007271;28;20201;-78
2022/09/16 08:09:20;;;;;;;1.55;0.30;;;;;20.60;100954.00;;;;5007864;28;20208;-78
2022/09/16 08:11:47;;;;;;;1.58;0.30;;;;;20.60;100960.00;;;;5007202;28;20204;-79
2022/09/16 08:14:15;;;;;;;0.88;0.22;;;;;20.70;100966.00;;;;5008085;28;20212;-80
2022/09/16 08:16:42;;;;;;;0.63;0.22;;;;;20.70;100970.00;;;;5009412;28;20197;-79
2022/09/16 08:19:09;;;;;;;2.47;0.60;;;;;20.80;100980.00;;;;5010150;28;20303;-78
2022/09/16 08:21:37;;;;;;;1.15;0.20;;;;;20.80;100971.00;;;;5010604;28;20232;-80
2022/09/16 08:24:05;;;;;;;2.20;0.30;;;;;20.90;100976.00;;;;5009115;28;20197;-79
2022/09/16 08:26:33;;;;;;;0.65;0.10;;;;;20.90;100977.00;;;;5011077;28;20212;-78
2022/09/16 08:29:00;;;;;;;0.88;0.30;;;;;21.00;100970.00;;;;5011205;28;20651;-79
2022/09/16 08:31:27;;;;;;;1.88;0.40;;;;;20.90;100971.00;;;;5009606;28;20197;-78
2022/09/16 08:33:55;;;;;;;2.85;0.50;;;;;20.90;100970.00;;;;5003156;28;20206;-78
2022/09/16 08:36:24;;;;;;;0.73;0.30;;;;;20.90;100963.00;;;;5009963;28;20292;-79
2022/09/16 08:38:54;;;;;;;1.40;0.30;;;;;20.80;100964.00;;;;5011033;28;20216;-78
2022/09/16 08:41:50;;;;;;;0.45;0.10;;;;;20.70;100963.00;;;;5002661;28;20221;-79
2022/09/16 08:44:29;;;;;;;0.30;0.15;;;;;20.70;100958.00;;;;5011632;28;20298;-79
2022/09/16 08:46:59;;;;;;;0.30;0.10;;;;;20.70;100962.00;;;;5011226;28;20235;-78
2022/09/16 08:49:34;;;;;;;3.47;0.40;;;;;20.60;100968.00;;;;5011635;28;20200;-78
2022/09/16 08:52:05;;;;;;;1.45;0.30;;;;;20.70;100972.00;;;;5002787;28;20208;-78
2022/09/16 08:54:36;;;;;;;1.13;0.30;;;;;20.70;100958.00;;;;5011708;28;20204;-77
2022/09/16 08:57:09;;;;;;;0.73;0.28;;;;;20.70;100968.00;;;;5010792;28;20235;-77
2022/09/16 08:59:43;;;;;;;4.03;0.60;;;;;20.80;100971.00;;;;5011053;28;20201;-77
2022/09/16 09:02:39;;;;;;;0.70;0.20;;;;;20.80;100974.00;;;;5008825;28;20235;-77
2022/09/16 09:05:18;;;;;;;0.50;0.20;;;;;20.90;100973.00;;;;5011022;28;20219;-77
2022/09/16 09:08:03;;;;;;;2.17;0.50;;;;;21.00;100976.00;;;;5010070;28;20662;-77
2022/09/16 09:10:41;;;;;;;2.05;0.20;;;;;21.00;100981.00;;;;5010988;28;20600;-77
2022/09/16 09:13:21;;;;;;;2.22;0.40;;;;;21.10;100985.00;;;;5010988;28;20247;-77
2022/09/16 09:15:57;;;;;;;0.82;0.30;;;;;21.20;100987.00;;;;5011156;28;20748;-78
2022/09/16 09:18:35;;;;;;;0.63;0.20;;;;;21.30;100990.00;;;;5009072;28;20207;-78
2022/09/16 09:21:18;;;;;;;1.10;0.20;;;;;21.40;101006.00;;;;5009938;28;20302;-79
2022/09/16 09:24:09;;;;;;;1.25;0.30;;;;;21.50;101004.00;;;;5000313;28;20209;-79
2022/09/16 09:26:43;;;;;;;2.42;0.57;;;;;21.50;101011.00;;;;5007417;28;20200;-77
2022/09/16 09:29:33;;;;;;;0.50;0.10;;;;;21.50;101009.00;;;;5008652;28;20218;-77
2022/09/16 09:32:09;;;;;;;1.15;0.10;;;;;21.50;101002.00;;;;4991088;28;20197;-78
2022/09/16 09:34:49;;;;;;;0.25;0.10;;;;;21.40;101002.00;;;;5002770;28;20192;-78
2022/09/16 09:37:34;;;;;;;0.98;0.17;;;;;21.40;101005.00;;;;5010540;28;20203;-77
2022/09/16 09:40:09;;;;;;;0.17;0.10;;;;;21.30;101009.00;;;;5009211;28;20193;-78
2022/09/16 09:42:40;;;;;;;1.15;0.10;;;;;21.30;100996.00;;;;5007921;28;20228;-78
2022/09/16 09:45:21;;;;;;;0.60;0.30;;;;;21.20;100995.00;;;;5009803;28;20259;-78
2022/09/16 09:47:52;;;;;;;1.83;0.20;;;;;21.40;100997.00;;;;4994051;28;20193;-78
2022/09/16 09:50:25;;;;;;;2.15;0.25;;;;;21.40;100988.00;;;;5009275;28;20247;-77
2022/09/16 09:53:02;;;;;;;1.15;0.25;;;;;21.60;100991.00;;;;5010119;28;20752;-78
2022/09/16 09:55:33;;;;;;;0.68;0.30;;;;;21.70;100997.00;;;;5010035;28;20261;-78
2022/09/16 09:58:19;;;;;;;1.02;0.20;;;;;21.70;100994.00;;;;4990495;28;20722;-78
2022/09/16 10:00:48;;;;;;;0.60;0.22;;;;;21.90;100987.00;;;;5007850;28;20212;-78
2022/09/16 10:03:17;;;;;;;0.80;0.10;;;;;21.90;100980.00;;;;5011689;28;20198;-78
2022/09/16 10:05:47;;;;;;;1.63;0.32;;;;;22.00;100992.00;;;;5011270;28;20417;-78
2022/09/16 10:08:26;;;;;;;1.33;0.10;;;;;21.90;100992.00;;;;5004883;28;20205;-78
2022/09/16 10:11:15;;;;;;;1.50;0.30;;;;;21.90;100988.00;;;;5013579;28;20204;-78
2022/09/16 10:13:50;;;;;;;1.77;0.22;;;;;22.10;100988.00;;;;5015374;28;20181;-78
2022/09/16 10:16:21;;;;;;;0.90;0.20;;;;;22.20;100985.00;;;;4997326;28;20225;-79
2022/09/16 10:18:58;;;;;;;3.97;0.38;;;;;22.10;100984.00;;;;5013177;28;20519;-79
2022/09/16 10:21:37;;;;;;;1.02;0.40;;;;;22.20;100985.00;;;;5009518;28;20701;-78
2022/09/16 10:24:05;;;;;;;0.50;0.10;;;;;22.20;101002.00;;;;5007184;28;20670;-78
2022/09/16 10:26:40;;;;;;;0.50;0.20;;;;;22.10;101006.00;;;;5012801;28;20197;-77
2022/09/16 10:29:18;;;;;;;2.05;0.52;;;;;22.00;101020.00;;;;5013726;28;20193;-78
2022/09/16 10:31:48;;;;;;;0.90;0.30;;;;;21.90;101026.00;;;;5013399;28;20279;-78
2022/09/16 10:34:23;;;;;;;1.25;0.20;;;;;21.80;101017.00;;;;5013006;28;20209;-77
2022/09/16 10:37:00;;;;;;;1.33;0.20;;;;;21.60;101006.00;;;;5011996;28;20200;-77
2022/09/16 10:39:32;;;;;;;0.40;0.10;;;;;21.60;101004.00;;;;4993828;28;20274;-77
2022/09/16 10:42:00;;;;;;;2.35;0.10;;;;;21.50;100998.00;;;;4992949;28;20232;-77
2022/09/16 10:44:30;;;;;;;1.10;0.30;;;;;21.40;101001.00;;;;5024334;28;20189;-77
2022/09/16 10:47:02;;;;;;;0.70;0.15;;;;;21.20;101012.00;;;;5020889;28;20205;-78
2022/09/16 10:49:37;;;;;;;0.70;0.30;;;;;21.20;101014.00;;;;5009165;28;20546;-78
2022/09/16 10:52:40;;;;;;;1.80;0.40;;;;;21.00;101015.00;;;;5013306;28;20204;-78
2022/09/16 10:55:22;;;;;;;1.42;0.25;;;;;20.90;101006.00;;;;5012055;28;20208;-78
2022/09/16 10:57:50;;;;;;;0.52;0.15;;;;;21.00;101005.00;;;;4994693;28;20232;-78
2022/09/16 11:00:19;;;;;;;0.65;0.28;;;;;20.90;101013.00;;;;5009544;28;20239;-78
2022/09/16 11:03:26;;;;;;;1.55;0.30;;;;;20.70;101017.00;;;;5009131;28;20232;-77
2022/09/16 11:06:05;;;;;;;1.10;0.30;;;;;20.70;101004.00;;;;5008689;28;20248;-78
2022/09/16 11:08:46;;;;;;;2.35;0.30;;;;;20.60;101012.00;;;;4990170;28;20193;-78
2022/09/16 11:11:20;;;;;;;1.05;0.30;;;;;20.60;101011.00;;;;5007876;28;20201;-78
2022/09/16 11:13:55;;;;;;;0.57;0.13;;;;;20.50;101002.00;;;;4989256;28;20204;-78
2022/09/16 11:16:49;;;;;;;1.85;0.30;;;;;20.40;101003.00;;;;5008783;28;20865;-78
2022/09/16 11:19:26;;;;;;;1.77;0.45;;;;;20.50;100999.00;;;;5002291;28;20295;-78
2022/09/16 11:22:12;;;;;;;1.35;0.20;;;;;20.50;101004.00;;;;5025965;28;20226;-78
2022/09/16 11:24:58;;;;;;;0.93;0.28;;;;;20.60;101008.00;;;;5007074;28;20203;-78
2022/09/16 11:27:37;;;;;;;0.10;0.10;;;;;20.70;101009.00;;;;5007466;28;20196;-77
2022/09/16 11:30:11;;;;;;;4.75;0.30;;;;;20.80;101000.00;;;;4999849;28;20201;-78
2022/09/16 11:32:59;;;;;;;2.22;0.20;;;;;20.90;101014.00;;;;5006122;28;20209;-78
2022/09/16 11:36:02;;;;;;;1.15;0.20;;;;;21.00;101004.00;;;;5004286;28;20201;-79
2022/09/16 11:38:38;;;;;;;1.17;0.32;;;;;21.20;101021.00;;;;5000560;28;20192;-78
2022/09/16 11:41:15;;;;;;;0.65;0.20;;;;;21.20;101029.00;;;;4996873;28;20228;-78
2022/09/16 11:43:59;;;;;;;0.57;0.15;;;;;21.20;101034.00;;;;5006853;28;20196;-77
2022/09/16 11:46:33;;;;;;;1.73;0.30;;;;;21.30;101021.00;;;;5001391;28;20229;-79
2022/09/16 11:49:15;;;;;;;1.35;0.22;;;;;21.30;101018.00;;;;5006783;28;20207;-78
2022/09/16 11:51:58;;;;;;;3.28;0.75;;;;;21.20;101024.00;;;;5001849;28;20204;-77
2022/09/16 11:54:39;;;;;;;1.75;0.40;;;;;21.10;101020.00;;;;5011150;28;20200;-77
2022/09/16 11:57:11;;;;;;;3.28;0.52;;;;;21.20;101013.00;;;;5000746;28;20274;-77
2022/09/16 11:59:45;;;;;;;1.55;0.30;;;;;21.20;101012.00;;;;5006580;28;20195;-77
2022/09/16 12:02:19;;;;;;;0.30;0.15;;;;;21.20;101008.00;;;;5009581;28;20231;-76
2022/09/16 12:04:52;;;;;;;2.00;0.10;;;;;21.20;100999.00;;;;5010023;28;20211;-76
2022/09/16 12:07:25;;;;;;;1.45;0.20;;;;;21.30;100997.00;;;;5008533;28;20737;-77
2022/09/16 12:09:58;;;;;;;1.17;0.20;;;;;21.40;100998.00;;;;5011382;28;20204;-78
2022/09/16 12:12:32;;;;;;;0.55;0.40;;;;;21.40;100998.00;;;;5007768;28;20207;-79
2022/09/16 12:15:01;;;;;;;2.17;0.40;;;;;21.50;100997.00;;;;5006361;28;20208;-78
2022/09/16 12:17:32;;;;;;;1.50;0.28;;;;;21.60;100992.00;;;;5010537;28;20197;-78
2022/09/16 12:20:05;;;;;;;1.02;0.20;;;;;21.60;100992.00;;;;5010550;28;20193;-79
2022/09/16 12:22:38;;;;;;;0.50;0.20;;;;;21.70;100999.00;;;;5006462;28;20231;-79
2022/09/16 12:25:12;;;;;;;3.72;0.30;;;;;21.70;100994.00;;;;5015419;28;20216;-81
2022/09/16 12:27:46;;;;;;;2.47;0.30;;;;;21.80;100998.00;;;;5009071;28;20201;-79
2022/09/16 12:30:17;;;;;;;1.85;0.40;;;;;21.90;100998.00;;;;5016682;28;20207;-80
2022/09/16 12:32:55;;;;;;;1.20;0.40;;;;;21.90;101001.00;;;;5005534;28;20193;-79
2022/09/16 12:35:28;;;;;;;0.93;0.20;;;;;22.00;100998.00;;;;5002481;28;20193;-80